sensor_id;sensor_type;location;lat;lon;timestamp;P1;durP1;ratioP1;P2;durP2;ratioP2
74648;SDS011;63168;49.280;7.214;2022-12-07T00:02:23;1.70;;;0.90;;
74648;SDS011;63168;49.280;7.214;2022-12-07T00:04:48;1.85;;;1.00;;
74648;SDS011;63168;49.280;7.214;2022-12-07T00:07:14;1.87;;;1.00;;
74648;SDS011;63168;49.280;7.214;2022-12-07T00:09:39;1.67;;;0.87;;
74648;SDS011;63168;49.280;7.214;2022-12-07T00:12:06;2.60;;;1.00;;
74648;SDS011;63168;49.280;7.214;2022-12-07T00:14:33;1.95;;;0.88;;
74648;SDS011;63168;49.280;7.214;2022-12-07T00:16:59;2.53;;;1.10;;
74648;SDS011;63168;49.280;7.214;2022-12-07T00:19:25;1.50;;;0.90;;
74648;SDS011;63168;49.280;7.214;2022-12-07T00:21:50;2.25;;;1.00;;
74648;SDS011;63168;49.280;7.214;2022-12-07T00:24:16;2.10;;;0.90;;
74648;SDS011;63168;49.280;7.214;2022-12-07T00:26:42;1.47;;;0.80;;
74648;SDS011;63168;49.280;7.214;2022-12-07T00:29:11;1.85;;;0.98;;
74648;SDS011;63168;49.280;7.214;2022-12-07T00:31:40;1.63;;;0.88;;
74648;SDS011;63168;49.280;7.214;2022-12-07T00:34:07;1.87;;;0.93;;
74648;SDS011;63168;49.280;7.214;2022-12-07T00:36:36;2.05;;;0.80;;
74648;SDS011;63168;49.280;7.214;2022-12-07T00:39:02;2.00;;;0.80;;
74648;SDS011;63168;49.280;7.214;2022-12-07T00:41:28;1.60;;;0.90;;
74648;SDS011;63168;49.280;7.214;2022-12-07T00:43:54;2.00;;;1.02;;
74648;SDS011;63168;49.280;7.214;2022-12-07T00:46:20;1.95;;;0.95;;
74648;SDS011;63168;49.280;7.214;2022-12-07T00:48:46;1.77;;;0.90;;
74648;SDS011;63168;49.280;7.214;2022-12-07T00:51:13;1.98;;;0.90;;
74648;SDS011;63168;49.280;7.214;2022-12-07T00:53:40;1.60;;;0.90;;
74648;SDS011;63168;49.280;7.214;2022-12-07T00:56:06;2.10;;;0.90;;
74648;SDS011;63168;49.280;7.214;2022-12-07T00:58:32;1.20;;;0.68;;
74648;SDS011;63168;49.280;7.214;2022-12-07T01:00:59;2.03;;;1.03;;
74648;SDS011;63168;49.280;7.214;2022-12-07T01:03:25;1.80;;;0.88;;
74648;SDS011;63168;49.280;7.214;2022-12-07T01:05:51;2.07;;;1.10;;
74648;SDS011;63168;49.280;7.214;2022-12-07T01:08:19;1.80;;;0.90;;
74648;SDS011;63168;49.280;7.214;2022-12-07T01:10:45;2.05;;;0.88;;
74648;SDS011;63168;49.280;7.214;2022-12-07T01:13:10;1.60;;;0.90;;
74648;SDS011;63168;49.280;7.214;2022-12-07T01:15:38;1.73;;;0.93;;
74648;SDS011;63168;49.280;7.214;2022-12-07T01:18:04;1.60;;;0.90;;
74648;SDS011;63168;49.280;7.214;2022-12-07T01:20:29;1.80;;;0.90;;
74648;SDS011;63168;49.280;7.214;2022-12-07T01:22:55;1.60;;;0.87;;
74648;SDS011;63168;49.280;7.214;2022-12-07T01:25:21;1.60;;;0.80;;
74648;SDS011;63168;49.280;7.214;2022-12-07T01:27:47;1.98;;;1.00;;
74648;SDS011;63168;49.280;7.214;2022-12-07T01:30:12;1.77;;;0.90;;
74648;SDS011;63168;49.280;7.214;2022-12-07T01:32:38;1.20;;;0.77;;
74648;SDS011;63168;49.280;7.214;2022-12-07T01:35:04;1.95;;;1.00;;
74648;SDS011;63168;49.280;7.214;2022-12-07T01:37:33;1.65;;;0.80;;
74648;SDS011;63168;49.280;7.214;2022-12-07T01:39:59;2.28;;;0.98;;
74648;SDS011;63168;49.280;7.214;2022-12-07T01:42:26;1.70;;;0.90;;
74648;SDS011;63168;49.280;7.214;2022-12-07T01:45:28;1.55;;;0.90;;
74648;SDS011;63168;49.280;7.214;2022-12-07T01:48:03;2.03;;;0.90;;
74648;SDS011;63168;49.280;7.214;2022-12-07T01:50:30;2.50;;;1.08;;
74648;SDS011;63168;49.280;7.214;2022-12-07T01:52:58;1.83;;;0.90;;
74648;SDS011;63168;49.280;7.214;2022-12-07T01:55:28;1.80;;;0.83;;
74648;SDS011;63168;49.280;7.214;2022-12-07T01:57:55;1.48;;;0.90;;
74648;SDS011;63168;49.280;7.214;2022-12-07T02:00:21;1.70;;;0.80;;
74648;SDS011;63168;49.280;7.214;2022-12-07T02:02:47;1.97;;;0.80;;
74648;SDS011;63168;49.280;7.214;2022-12-07T02:05:16;1.85;;;0.88;;
74648;SDS011;63168;49.280;7.214;2022-12-07T02:07:42;2.17;;;0.90;;
74648;SDS011;63168;49.280;7.214;2022-12-07T02:10:12;1.50;;;0.80;;
74648;SDS011;63168;49.280;7.214;2022-12-07T02:12:39;1.70;;;0.80;;
74648;SDS011;63168;49.280;7.214;2022-12-07T02:15:07;1.90;;;0.90;;
74648;SDS011;63168;49.280;7.214;2022-12-07T02:17:35;1.25;;;0.80;;
74648;SDS011;63168;49.280;7.214;2022-12-07T02:20:09;1.63;;;0.93;;
74648;SDS011;63168;49.280;7.214;2022-12-07T02:22:51;2.13;;;0.90;;
74648;SDS011;63168;49.280;7.214;2022-12-07T02:25:32;1.08;;;0.73;;
74648;SDS011;63168;49.280;7.214;2022-12-07T02:28:15;1.83;;;0.85;;
74648;SDS011;63168;49.280;7.214;2022-12-07T02:30:48;1.48;;;0.88;;
74648;SDS011;63168;49.280;7.214;2022-12-07T02:33:17;1.65;;;0.90;;
74648;SDS011;63168;49.280;7.214;2022-12-07T02:35:51;1.80;;;0.90;;
74648;SDS011;63168;49.280;7.214;2022-12-07T02:38:24;1.48;;;0.80;;
74648;SDS011;63168;49.280;7.214;2022-12-07T02:40:57;2.17;;;1.00;;
74648;SDS011;63168;49.280;7.214;2022-12-07T02:43:30;1.57;;;0.80;;
74648;SDS011;63168;49.280;7.214;2022-12-07T02:46:01;2.03;;;0.90;;
74648;SDS011;63168;49.280;7.214;2022-12-07T02:48:30;1.90;;;0.88;;
74648;SDS011;63168;49.280;7.214;2022-12-07T02:50:57;2.22;;;1.00;;
74648;SDS011;63168;49.280;7.214;2022-12-07T02:53:30;1.70;;;0.70;;
74648;SDS011;63168;49.280;7.214;2022-12-07T02:55:57;1.33;;;0.80;;
74648;SDS011;63168;49.280;7.214;2022-12-07T02:58:28;1.83;;;0.90;;
74648;SDS011;63168;49.280;7.214;2022-12-07T03:01:11;1.30;;;0.68;;
74648;SDS011;63168;49.280;7.214;2022-12-07T03:03:44;1.50;;;0.80;;
74648;SDS011;63168;49.280;7.214;2022-12-07T03:06:19;1.33;;;0.83;;
74648;SDS011;63168;49.280;7.214;2022-12-07T03:08:51;1.73;;;0.90;;
74648;SDS011;63168;49.280;7.214;2022-12-07T03:11:23;1.73;;;0.93;;
74648;SDS011;63168;49.280;7.214;2022-12-07T03:13:56;1.90;;;0.80;;
74648;SDS011;63168;49.280;7.214;2022-12-07T03:16:30;1.35;;;0.70;;
74648;SDS011;63168;49.280;7.214;2022-12-07T03:19:01;1.02;;;0.70;;
74648;SDS011;63168;49.280;7.214;2022-12-07T03:21:31;1.40;;;0.80;;
74648;SDS011;63168;49.280;7.214;2022-12-07T03:23:59;1.80;;;0.80;;
74648;SDS011;63168;49.280;7.214;2022-12-07T03:26:30;1.30;;;0.70;;
74648;SDS011;63168;49.280;7.214;2022-12-07T03:29:00;1.42;;;0.70;;
74648;SDS011;63168;49.280;7.214;2022-12-07T03:31:32;1.52;;;0.80;;
74648;SDS011;63168;49.280;7.214;2022-12-07T03:34:01;1.80;;;1.00;;
74648;SDS011;63168;49.280;7.214;2022-12-07T03:36:35;2.07;;;0.90;;
74648;SDS011;63168;49.280;7.214;2022-12-07T03:39:08;1.33;;;0.80;;
74648;SDS011;63168;49.280;7.214;2022-12-07T03:41:41;1.08;;;0.68;;
74648;SDS011;63168;49.280;7.214;2022-12-07T03:44:06;1.70;;;0.80;;
74648;SDS011;63168;49.280;7.214;2022-12-07T03:46:36;1.70;;;0.88;;
74648;SDS011;63168;49.280;7.214;2022-12-07T03:49:11;1.55;;;0.75;;
74648;SDS011;63168;49.280;7.214;2022-12-07T03:51:43;1.80;;;0.80;;
74648;SDS011;63168;49.280;7.214;2022-12-07T03:54:15;1.85;;;0.80;;
74648;SDS011;63168;49.280;7.214;2022-12-07T03:56:46;1.40;;;0.70;;
74648;SDS011;63168;49.280;7.214;2022-12-07T03:59:13;1.50;;;0.77;;
74648;SDS011;63168;49.280;7.214;2022-12-07T04:01:42;1.67;;;0.80;;
74648;SDS011;63168;49.280;7.214;2022-12-07T04:04:08;1.52;;;0.75;;
74648;SDS011;63168;49.280;7.214;2022-12-07T04:06:33;1.80;;;1.00;;
74648;SDS011;63168;49.280;7.214;2022-12-07T04:08:59;1.80;;;0.90;;
74648;SDS011;63168;49.280;7.214;2022-12-07T04:11:24;1.40;;;0.70;;
74648;SDS011;63168;49.280;7.214;2022-12-07T04:13:50;1.63;;;0.80;;
74648;SDS011;63168;49.280;7.214;2022-12-07T04:16:34;1.67;;;0.70;;
74648;SDS011;63168;49.280;7.214;2022-12-07T04:19:01;1.30;;;0.73;;
74648;SDS011;63168;49.280;7.214;2022-12-07T04:21:26;1.38;;;0.68;;
74648;SDS011;63168;49.280;7.214;2022-12-07T04:23:51;1.60;;;0.80;;
74648;SDS011;63168;49.280;7.214;2022-12-07T04:26:17;1.30;;;0.80;;
74648;SDS011;63168;49.280;7.214;2022-12-07T04:28:42;1.33;;;0.77;;
74648;SDS011;63168;49.280;7.214;2022-12-07T04:31:08;1.37;;;0.70;;
74648;SDS011;63168;49.280;7.214;2022-12-07T04:33:34;1.92;;;1.00;;
74648;SDS011;63168;49.280;7.214;2022-12-07T04:36:01;1.50;;;0.90;;
74648;SDS011;63168;49.280;7.214;2022-12-07T04:38:27;1.40;;;0.80;;
74648;SDS011;63168;49.280;7.214;2022-12-07T04:40:52;1.43;;;0.80;;
74648;SDS011;63168;49.280;7.214;2022-12-07T04:43:18;1.60;;;0.70;;
74648;SDS011;63168;49.280;7.214;2022-12-07T04:45:45;1.50;;;0.70;;
74648;SDS011;63168;49.280;7.214;2022-12-07T04:48:11;1.50;;;0.83;;
74648;SDS011;63168;49.280;7.214;2022-12-07T04:50:36;1.48;;;0.77;;
74648;SDS011;63168;49.280;7.214;2022-12-07T04:53:04;1.40;;;0.70;;
74648;SDS011;63168;49.280;7.214;2022-12-07T04:55:29;1.75;;;0.77;;
74648;SDS011;63168;49.280;7.214;2022-12-07T04:57:55;1.33;;;0.73;;
74648;SDS011;63168;49.280;7.214;2022-12-07T05:00:20;1.53;;;0.70;;
74648;SDS011;63168;49.280;7.214;2022-12-07T05:02:46;1.43;;;0.80;;
74648;SDS011;63168;49.280;7.214;2022-12-07T05:05:11;1.42;;;0.80;;
74648;SDS011;63168;49.280;7.214;2022-12-07T05:07:37;1.50;;;0.80;;
74648;SDS011;63168;49.280;7.214;2022-12-07T05:10:04;1.57;;;0.83;;
74648;SDS011;63168;49.280;7.214;2022-12-07T05:12:30;1.58;;;0.85;;
74648;SDS011;63168;49.280;7.214;2022-12-07T05:14:56;1.15;;;0.75;;
74648;SDS011;63168;49.280;7.214;2022-12-07T05:17:21;2.20;;;0.80;;
74648;SDS011;63168;49.280;7.214;2022-12-07T05:19:47;1.63;;;0.80;;
74648;SDS011;63168;49.280;7.214;2022-12-07T05:22:12;1.60;;;0.77;;
74648;SDS011;63168;49.280;7.214;2022-12-07T05:24:38;1.25;;;0.57;;
74648;SDS011;63168;49.280;7.214;2022-12-07T05:27:05;1.42;;;0.80;;
74648;SDS011;63168;49.280;7.214;2022-12-07T05:29:30;1.27;;;0.80;;
74648;SDS011;63168;49.280;7.214;2022-12-07T05:31:56;1.60;;;0.70;;
74648;SDS011;63168;49.280;7.214;2022-12-07T05:34:21;1.40;;;0.80;;
74648;SDS011;63168;49.280;7.214;2022-12-07T05:36:47;0.90;;;0.55;;
74648;SDS011;63168;49.280;7.214;2022-12-07T05:39:12;1.33;;;0.80;;
74648;SDS011;63168;49.280;7.214;2022-12-07T05:41:38;1.30;;;0.70;;
74648;SDS011;63168;49.280;7.214;2022-12-07T05:44:24;1.27;;;0.70;;
74648;SDS011;63168;49.280;7.214;2022-12-07T05:46:49;1.42;;;0.80;;
74648;SDS011;63168;49.280;7.214;2022-12-07T05:49:15;2.33;;;1.00;;
74648;SDS011;63168;49.280;7.214;2022-12-07T05:51:40;3.70;;;1.20;;
74648;SDS011;63168;49.280;7.214;2022-12-07T05:54:05;2.10;;;1.10;;
74648;SDS011;63168;49.280;7.214;2022-12-07T05:56:31;2.13;;;1.00;;
74648;SDS011;63168;49.280;7.214;2022-12-07T05:58:56;2.58;;;1.10;;
74648;SDS011;63168;49.280;7.214;2022-12-07T06:01:42;2.47;;;1.15;;
74648;SDS011;63168;49.280;7.214;2022-12-07T06:04:08;2.17;;;1.00;;
74648;SDS011;63168;49.280;7.214;2022-12-07T06:06:34;14.10;;;4.53;;
74648;SDS011;63168;49.280;7.214;2022-12-07T06:08:59;10.33;;;3.13;;
74648;SDS011;63168;49.280;7.214;2022-12-07T06:11:24;9.17;;;3.10;;
74648;SDS011;63168;49.280;7.214;2022-12-07T06:14:13;10.25;;;3.83;;
74648;SDS011;63168;49.280;7.214;2022-12-07T06:16:38;11.33;;;4.47;;
74648;SDS011;63168;49.280;7.214;2022-12-07T06:19:05;10.20;;;3.97;;
74648;SDS011;63168;49.280;7.214;2022-12-07T06:21:31;8.70;;;3.15;;
74648;SDS011;63168;49.280;7.214;2022-12-07T06:23:56;7.03;;;3.20;;
74648;SDS011;63168;49.280;7.214;2022-12-07T06:26:22;8.90;;;3.37;;
74648;SDS011;63168;49.280;7.214;2022-12-07T06:28:47;10.75;;;3.53;;
74648;SDS011;63168;49.280;7.214;2022-12-07T06:31:13;7.20;;;3.43;;
74648;SDS011;63168;49.280;7.214;2022-12-07T06:33:38;7.28;;;3.08;;
74648;SDS011;63168;49.280;7.214;2022-12-07T06:36:05;6.97;;;3.03;;
74648;SDS011;63168;49.280;7.214;2022-12-07T06:38:31;7.32;;;3.30;;
74648;SDS011;63168;49.280;7.214;2022-12-07T06:40:57;7.20;;;3.23;;
74648;SDS011;63168;49.280;7.214;2022-12-07T06:43:22;8.13;;;3.53;;
74648;SDS011;63168;49.280;7.214;2022-12-07T06:45:48;7.30;;;3.10;;
74648;SDS011;63168;49.280;7.214;2022-12-07T06:48:13;6.57;;;2.83;;
74648;SDS011;63168;49.280;7.214;2022-12-07T06:50:39;5.73;;;2.63;;
74648;SDS011;63168;49.280;7.214;2022-12-07T06:53:06;6.97;;;2.80;;
74648;SDS011;63168;49.280;7.214;2022-12-07T06:55:32;8.60;;;3.53;;
74648;SDS011;63168;49.280;7.214;2022-12-07T06:57:57;7.00;;;3.30;;
74648;SDS011;63168;49.280;7.214;2022-12-07T07:00:23;6.63;;;2.73;;
74648;SDS011;63168;49.280;7.214;2022-12-07T07:02:48;7.20;;;3.00;;
74648;SDS011;63168;49.280;7.214;2022-12-07T07:05:14;9.67;;;3.20;;
74648;SDS011;63168;49.280;7.214;2022-12-07T07:07:41;5.93;;;2.72;;
74648;SDS011;63168;49.280;7.214;2022-12-07T07:10:08;6.40;;;2.77;;
74648;SDS011;63168;49.280;7.214;2022-12-07T07:12:34;5.72;;;2.60;;
74648;SDS011;63168;49.280;7.214;2022-12-07T07:14:59;8.27;;;3.13;;
74648;SDS011;63168;49.280;7.214;2022-12-07T07:17:25;7.87;;;2.50;;
74648;SDS011;63168;49.280;7.214;2022-12-07T07:19:50;7.20;;;2.53;;
74648;SDS011;63168;49.280;7.214;2022-12-07T07:22:16;5.75;;;2.47;;
74648;SDS011;63168;49.280;7.214;2022-12-07T07:24:41;6.53;;;2.77;;
74648;SDS011;63168;49.280;7.214;2022-12-07T07:27:08;6.27;;;2.80;;
74648;SDS011;63168;49.280;7.214;2022-12-07T07:29:33;7.10;;;2.90;;
74648;SDS011;63168;49.280;7.214;2022-12-07T07:31:59;5.73;;;2.40;;
74648;SDS011;63168;49.280;7.214;2022-12-07T07:34:25;5.28;;;2.78;;
74648;SDS011;63168;49.280;7.214;2022-12-07T07:36:50;5.50;;;2.47;;
74648;SDS011;63168;49.280;7.214;2022-12-07T07:39:15;5.15;;;2.40;;
74648;SDS011;63168;49.280;7.214;2022-12-07T07:41:41;6.13;;;2.70;;
74648;SDS011;63168;49.280;7.214;2022-12-07T07:44:08;5.50;;;2.50;;
74648;SDS011;63168;49.280;7.214;2022-12-07T07:46:34;5.80;;;2.85;;
74648;SDS011;63168;49.280;7.214;2022-12-07T07:49:00;6.60;;;2.77;;
74648;SDS011;63168;49.280;7.214;2022-12-07T07:51:25;4.65;;;2.45;;
74648;SDS011;63168;49.280;7.214;2022-12-07T07:53:50;5.67;;;2.50;;
74648;SDS011;63168;49.280;7.214;2022-12-07T07:56:16;4.83;;;2.33;;
74648;SDS011;63168;49.280;7.214;2022-12-07T07:58:41;5.37;;;2.23;;
74648;SDS011;63168;49.280;7.214;2022-12-07T08:01:08;5.78;;;2.50;;
74648;SDS011;63168;49.280;7.214;2022-12-07T08:03:34;5.13;;;2.37;;
74648;SDS011;63168;49.280;7.214;2022-12-07T08:05:59;5.00;;;2.23;;
74648;SDS011;63168;49.280;7.214;2022-12-07T08:08:27;5.07;;;2.30;;
74648;SDS011;63168;49.280;7.214;2022-12-07T08:10:52;4.77;;;2.03;;
74648;SDS011;63168;49.280;7.214;2022-12-07T08:13:17;4.10;;;2.10;;
74648;SDS011;63168;49.280;7.214;2022-12-07T08:15:44;4.57;;;2.20;;
74648;SDS011;63168;49.280;7.214;2022-12-07T08:18:13;5.88;;;2.38;;
74648;SDS011;63168;49.280;7.214;2022-12-07T08:20:40;4.80;;;2.17;;
74648;SDS011;63168;49.280;7.214;2022-12-07T08:23:06;5.05;;;2.33;;
74648;SDS011;63168;49.280;7.214;2022-12-07T08:25:32;5.43;;;2.10;;
74648;SDS011;63168;49.280;7.214;2022-12-07T08:27:58;4.78;;;2.20;;
74648;SDS011;63168;49.280;7.214;2022-12-07T08:30:25;5.30;;;2.55;;
74648;SDS011;63168;49.280;7.214;2022-12-07T08:32:51;7.45;;;2.40;;
74648;SDS011;63168;49.280;7.214;2022-12-07T08:35:18;5.03;;;2.10;;
74648;SDS011;63168;49.280;7.214;2022-12-07T08:37:43;4.93;;;2.30;;
74648;SDS011;63168;49.280;7.214;2022-12-07T08:40:09;5.10;;;2.30;;
74648;SDS011;63168;49.280;7.214;2022-12-07T08:42:40;4.88;;;2.45;;
74648;SDS011;63168;49.280;7.214;2022-12-07T08:45:06;5.40;;;2.10;;
74648;SDS011;63168;49.280;7.214;2022-12-07T08:47:33;4.75;;;2.25;;
74648;SDS011;63168;49.280;7.214;2022-12-07T08:50:00;4.72;;;2.10;;
74648;SDS011;63168;49.280;7.214;2022-12-07T08:52:29;5.00;;;2.20;;
74648;SDS011;63168;49.280;7.214;2022-12-07T08:54:56;3.85;;;2.08;;
74648;SDS011;63168;49.280;7.214;2022-12-07T08:57:22;4.88;;;2.15;;
74648;SDS011;63168;49.280;7.214;2022-12-07T08:59:47;4.63;;;2.20;;
74648;SDS011;63168;49.280;7.214;2022-12-07T09:02:13;3.90;;;2.03;;
74648;SDS011;63168;49.280;7.214;2022-12-07T09:04:38;4.47;;;1.90;;
74648;SDS011;63168;49.280;7.214;2022-12-07T09:07:03;4.47;;;1.95;;
74648;SDS011;63168;49.280;7.214;2022-12-07T09:09:31;4.53;;;2.00;;
74648;SDS011;63168;49.280;7.214;2022-12-07T09:11:56;4.68;;;2.10;;
74648;SDS011;63168;49.280;7.214;2022-12-07T09:14:22;3.40;;;1.90;;
74648;SDS011;63168;49.280;7.214;2022-12-07T09:16:47;4.32;;;2.17;;
74648;SDS011;63168;49.280;7.214;2022-12-07T09:19:13;6.20;;;2.33;;
74648;SDS011;63168;49.280;7.214;2022-12-07T09:21:38;4.60;;;2.17;;
74648;SDS011;63168;49.280;7.214;2022-12-07T09:24:04;3.73;;;2.00;;
74648;SDS011;63168;49.280;7.214;2022-12-07T09:26:31;4.40;;;2.22;;
74648;SDS011;63168;49.280;7.214;2022-12-07T09:28:56;5.53;;;2.10;;
74648;SDS011;63168;49.280;7.214;2022-12-07T09:31:22;4.38;;;2.10;;
74648;SDS011;63168;49.280;7.214;2022-12-07T09:33:52;3.80;;;2.00;;
74648;SDS011;63168;49.280;7.214;2022-12-07T09:36:18;3.35;;;1.70;;
74648;SDS011;63168;49.280;7.214;2022-12-07T09:38:43;5.37;;;2.20;;
74648;SDS011;63168;49.280;7.214;2022-12-07T09:41:09;4.13;;;1.80;;
74648;SDS011;63168;49.280;7.214;2022-12-07T09:43:36;3.93;;;2.03;;
74648;SDS011;63168;49.280;7.214;2022-12-07T09:46:05;3.85;;;1.88;;
74648;SDS011;63168;49.280;7.214;2022-12-07T09:48:31;4.37;;;2.10;;
74648;SDS011;63168;49.280;7.214;2022-12-07T09:51:00;5.25;;;2.20;;
74648;SDS011;63168;49.280;7.214;2022-12-07T09:53:26;3.72;;;1.85;;
74648;SDS011;63168;49.280;7.214;2022-12-07T09:55:54;4.00;;;2.00;;
74648;SDS011;63168;49.280;7.214;2022-12-07T09:58:20;4.13;;;1.97;;
74648;SDS011;63168;49.280;7.214;2022-12-07T10:00:49;4.03;;;2.00;;
74648;SDS011;63168;49.280;7.214;2022-12-07T10:03:17;4.97;;;2.40;;
74648;SDS011;63168;49.280;7.214;2022-12-07T10:05:44;3.83;;;1.83;;
74648;SDS011;63168;49.280;7.214;2022-12-07T10:08:12;4.38;;;2.13;;
74648;SDS011;63168;49.280;7.214;2022-12-07T10:10:38;3.55;;;1.80;;
74648;SDS011;63168;49.280;7.214;2022-12-07T10:13:06;4.05;;;2.10;;
74648;SDS011;63168;49.280;7.214;2022-12-07T10:15:47;3.95;;;1.83;;
74648;SDS011;63168;49.280;7.214;2022-12-07T10:18:21;4.78;;;2.10;;
74648;SDS011;63168;49.280;7.214;2022-12-07T10:21:00;4.20;;;1.80;;
74648;SDS011;63168;49.280;7.214;2022-12-07T10:23:32;4.30;;;1.92;;
74648;SDS011;63168;49.280;7.214;2022-12-07T10:25:58;5.03;;;2.10;;
74648;SDS011;63168;49.280;7.214;2022-12-07T10:28:27;3.87;;;2.00;;
74648;SDS011;63168;49.280;7.214;2022-12-07T10:31:01;4.50;;;2.13;;
74648;SDS011;63168;49.280;7.214;2022-12-07T10:33:29;4.00;;;2.00;;
74648;SDS011;63168;49.280;7.214;2022-12-07T10:35:57;4.20;;;2.05;;
74648;SDS011;63168;49.280;7.214;2022-12-07T10:38:23;4.75;;;2.00;;
74648;SDS011;63168;49.280;7.214;2022-12-07T10:40:51;3.53;;;1.80;;
74648;SDS011;63168;49.280;7.214;2022-12-07T10:43:28;3.80;;;1.90;;
74648;SDS011;63168;49.280;7.214;2022-12-07T10:48:52;3.78;;;1.80;;
74648;SDS011;63168;49.280;7.214;2022-12-07T10:51:26;3.43;;;2.00;;
74648;SDS011;63168;49.280;7.214;2022-12-07T10:54:04;3.63;;;2.03;;
74648;SDS011;63168;49.280;7.214;2022-12-07T10:59:43;4.38;;;1.95;;
74648;SDS011;63168;49.280;7.214;2022-12-07T11:02:30;4.15;;;2.33;;
74648;SDS011;63168;49.280;7.214;2022-12-07T11:05:09;4.88;;;2.00;;
74648;SDS011;63168;49.280;7.214;2022-12-07T11:07:51;4.13;;;2.03;;
74648;SDS011;63168;49.280;7.214;2022-12-07T11:10:29;19.40;;;8.02;;
74648;SDS011;63168;49.280;7.214;2022-12-07T11:13:11;22.45;;;9.38;;
74648;SDS011;63168;49.280;7.214;2022-12-07T11:15:52;24.50;;;10.07;;
74648;SDS011;63168;49.280;7.214;2022-12-07T11:18:24;27.03;;;12.57;;
74648;SDS011;63168;49.280;7.214;2022-12-07T11:20:57;35.93;;;15.90;;
74648;SDS011;63168;49.280;7.214;2022-12-07T11:23:41;40.90;;;16.08;;
74648;SDS011;63168;49.280;7.214;2022-12-07T11:26:14;42.85;;;18.67;;
74648;SDS011;63168;49.280;7.214;2022-12-07T11:28:56;47.85;;;20.00;;
74648;SDS011;63168;49.280;7.214;2022-12-07T11:31:36;52.80;;;20.27;;
74648;SDS011;63168;49.280;7.214;2022-12-07T11:34:13;49.45;;;22.17;;
74648;SDS011;63168;49.280;7.214;2022-12-07T11:36:47;54.63;;;22.73;;
74648;SDS011;63168;49.280;7.214;2022-12-07T11:39:20;60.47;;;24.48;;
74648;SDS011;63168;49.280;7.214;2022-12-07T11:41:52;60.90;;;27.65;;
74648;SDS011;63168;49.280;7.214;2022-12-07T11:44:27;60.90;;;26.23;;
74648;SDS011;63168;49.280;7.214;2022-12-07T11:47:00;64.60;;;27.70;;
74648;SDS011;63168;49.280;7.214;2022-12-07T11:49:37;73.90;;;28.75;;
74648;SDS011;63168;49.280;7.214;2022-12-07T11:52:11;69.47;;;30.05;;
74648;SDS011;63168;49.280;7.214;2022-12-07T11:54:42;73.97;;;30.88;;
74648;SDS011;63168;49.280;7.214;2022-12-07T11:57:13;73.47;;;28.75;;
74648;SDS011;63168;49.280;7.214;2022-12-07T11:59:45;72.68;;;30.50;;
74648;SDS011;63168;49.280;7.214;2022-12-07T12:02:16;79.88;;;32.65;;
74648;SDS011;63168;49.280;7.214;2022-12-07T12:04:50;77.10;;;31.98;;
74648;SDS011;63168;49.280;7.214;2022-12-07T12:07:22;72.75;;;30.77;;
74648;SDS011;63168;49.280;7.214;2022-12-07T12:09:51;72.25;;;31.60;;
74648;SDS011;63168;49.280;7.214;2022-12-07T12:12:26;81.95;;;33.63;;
74648;SDS011;63168;49.280;7.214;2022-12-07T12:15:09;81.28;;;33.00;;
74648;SDS011;63168;49.280;7.214;2022-12-07T12:18:01;86.03;;;34.30;;
74648;SDS011;63168;49.280;7.214;2022-12-07T12:20:40;82.13;;;33.55;;
74648;SDS011;63168;49.280;7.214;2022-12-07T12:23:11;83.43;;;33.90;;
74648;SDS011;63168;49.280;7.214;2022-12-07T12:25:42;83.57;;;33.53;;
74648;SDS011;63168;49.280;7.214;2022-12-07T12:28:18;80.60;;;33.60;;
74648;SDS011;63168;49.280;7.214;2022-12-07T12:31:04;81.00;;;35.58;;
74648;SDS011;63168;49.280;7.214;2022-12-07T12:33:36;79.07;;;33.60;;
74648;SDS011;63168;49.280;7.214;2022-12-07T12:36:19;82.45;;;33.47;;
74648;SDS011;63168;49.280;7.214;2022-12-07T12:38:51;86.73;;;35.27;;
74648;SDS011;63168;49.280;7.214;2022-12-07T12:44:38;83.80;;;35.45;;
74648;SDS011;63168;49.280;7.214;2022-12-07T12:47:37;88.50;;;33.45;;
74648;SDS011;63168;49.280;7.214;2022-12-07T12:50:17;82.82;;;33.67;;
74648;SDS011;63168;49.280;7.214;2022-12-07T12:52:54;90.28;;;34.60;;
74648;SDS011;63168;49.280;7.214;2022-12-07T12:55:42;83.28;;;33.35;;
74648;SDS011;63168;49.280;7.214;2022-12-07T13:04:25;83.57;;;34.13;;
74648;SDS011;63168;49.280;7.214;2022-12-07T13:07:08;78.38;;;31.75;;
74648;SDS011;63168;49.280;7.214;2022-12-07T13:09:36;84.10;;;34.13;;
74648;SDS011;63168;49.280;7.214;2022-12-07T13:12:13;80.82;;;32.40;;
74648;SDS011;63168;49.280;7.214;2022-12-07T13:14:42;78.82;;;34.38;;
74648;SDS011;63168;49.280;7.214;2022-12-07T13:23:11;70.75;;;31.73;;
74648;SDS011;63168;49.280;7.214;2022-12-07T13:25:42;76.65;;;32.10;;
74648;SDS011;63168;49.280;7.214;2022-12-07T13:28:39;74.80;;;31.08;;
74648;SDS011;63168;49.280;7.214;2022-12-07T13:33:59;75.45;;;31.33;;
74648;SDS011;63168;49.280;7.214;2022-12-07T13:36:25;75.25;;;30.80;;
74648;SDS011;63168;49.280;7.214;2022-12-07T13:38:55;76.03;;;30.77;;
74648;SDS011;63168;49.280;7.214;2022-12-07T13:41:22;82.07;;;31.30;;
74648;SDS011;63168;49.280;7.214;2022-12-07T13:43:51;74.43;;;30.38;;
74648;SDS011;63168;49.280;7.214;2022-12-07T13:46:19;72.93;;;30.58;;
74648;SDS011;63168;49.280;7.214;2022-12-07T13:48:50;69.18;;;28.85;;
74648;SDS011;63168;49.280;7.214;2022-12-07T13:51:17;72.43;;;30.23;;
74648;SDS011;63168;49.280;7.214;2022-12-07T13:53:46;67.85;;;27.98;;
74648;SDS011;63168;49.280;7.214;2022-12-07T13:56:12;68.82;;;29.00;;
74648;SDS011;63168;49.280;7.214;2022-12-07T13:58:39;70.55;;;28.48;;
74648;SDS011;63168;49.280;7.214;2022-12-07T14:01:06;66.67;;;28.90;;
74648;SDS011;63168;49.280;7.214;2022-12-07T14:03:33;71.93;;;28.35;;
74648;SDS011;63168;49.280;7.214;2022-12-07T14:06:05;69.15;;;27.77;;
74648;SDS011;63168;49.280;7.214;2022-12-07T14:08:41;65.90;;;28.08;;
74648;SDS011;63168;49.280;7.214;2022-12-07T14:11:07;65.13;;;27.25;;
74648;SDS011;63168;49.280;7.214;2022-12-07T14:13:38;65.55;;;27.52;;
74648;SDS011;63168;49.280;7.214;2022-12-07T14:16:16;60.53;;;26.63;;
74648;SDS011;63168;49.280;7.214;2022-12-07T14:18:48;68.90;;;27.88;;
74648;SDS011;63168;49.280;7.214;2022-12-07T14:21:14;64.23;;;26.03;;
74648;SDS011;63168;49.280;7.214;2022-12-07T14:23:43;65.25;;;25.55;;
74648;SDS011;63168;49.280;7.214;2022-12-07T14:26:10;62.97;;;26.47;;
74648;SDS011;63168;49.280;7.214;2022-12-07T14:28:38;62.42;;;25.50;;
74648;SDS011;63168;49.280;7.214;2022-12-07T14:31:07;58.08;;;24.63;;
74648;SDS011;63168;49.280;7.214;2022-12-07T14:33:37;54.77;;;24.40;;
74648;SDS011;63168;49.280;7.214;2022-12-07T14:36:03;58.38;;;24.63;;
74648;SDS011;63168;49.280;7.214;2022-12-07T14:38:29;55.27;;;22.90;;
74648;SDS011;63168;49.280;7.214;2022-12-07T14:40:55;56.58;;;24.77;;
74648;SDS011;63168;49.280;7.214;2022-12-07T14:43:41;57.65;;;24.23;;
74648;SDS011;63168;49.280;7.214;2022-12-07T14:46:06;57.70;;;23.07;;
74648;SDS011;63168;49.280;7.214;2022-12-07T14:48:32;53.37;;;23.67;;
74648;SDS011;63168;49.280;7.214;2022-12-07T14:50:58;50.53;;;22.57;;
74648;SDS011;63168;49.280;7.214;2022-12-07T14:53:25;57.03;;;22.65;;
74648;SDS011;63168;49.280;7.214;2022-12-07T14:55:54;53.25;;;22.98;;
74648;SDS011;63168;49.280;7.214;2022-12-07T14:58:19;53.90;;;21.63;;
74648;SDS011;63168;49.280;7.214;2022-12-07T15:00:45;48.78;;;20.95;;
74648;SDS011;63168;49.280;7.214;2022-12-07T15:03:12;47.65;;;20.20;;
74648;SDS011;63168;49.280;7.214;2022-12-07T15:05:38;49.63;;;21.70;;
74648;SDS011;63168;49.280;7.214;2022-12-07T15:08:05;51.83;;;20.90;;
74648;SDS011;63168;49.280;7.214;2022-12-07T15:10:33;49.97;;;20.42;;
74648;SDS011;63168;49.280;7.214;2022-12-07T15:12:59;49.53;;;19.98;;
74648;SDS011;63168;49.280;7.214;2022-12-07T15:15:44;43.47;;;20.73;;
74648;SDS011;63168;49.280;7.214;2022-12-07T15:18:09;46.93;;;20.37;;